Arrowsic, Maine
Current Conditions -  °F | °C
As of 3:25 PM on Monday 24 Nov 2014 (Local Time) from KIWI Reporting Station
Haze Haze  
Wind Chill: 58°   Ceiling: 200
Heat Index: 58°   Visibility: 2.5mi
Dew Point: 57°   Wind: 8mph
Humidity: 97%   Direction: 190°S
Pressure: 29.6"   Gusts: 18mph
Location:  43.8797°N, 69.8408°W
Report Text: KIWI 242025Z AUTO 19007G16KT 2 1/2SM BR OVC002 14/14 A2960 RMK AO2 T01440139
Loading
Personal Weather Stations






























Interactive Weather Map New forecast layout! Learn more

10-Day Weather Forecast

Advertisements
Track Severe Weather on mobile